createdAt,value
2018-02-05T00:00:20.782Z,8.50
2018-02-05T00:01:26.309Z,6.00
2018-02-05T00:02:31.842Z,6.70
2018-02-05T00:03:37.364Z,8.20
2018-02-05T00:04:42.893Z,6.30
2018-02-05T00:05:48.420Z,8.60
2018-02-05T00:06:54.007Z,6.50
2018-02-05T00:07:59.480Z,9.90
2018-02-05T00:09:05.006Z,7.60
2018-02-05T00:10:10.532Z,7.00
2018-02-05T00:11:16.062Z,7.70
2018-02-05T00:12:21.588Z,7.10
2018-02-05T00:13:27.116Z,10.80
2018-02-05T00:14:32.645Z,5.90
2018-02-05T00:15:38.179Z,6.20
2018-02-05T00:16:43.705Z,11.40
2018-02-05T00:17:49.243Z,9.80
2018-02-05T00:18:54.758Z,10.00
2018-02-05T00:20:00.285Z,8.70
2018-02-05T00:21:05.812Z,11.30
2018-02-05T00:22:11.342Z,9.70
2018-02-05T00:23:16.869Z,9.40
2018-02-05T00:24:22.398Z,8.70
2018-02-05T00:25:27.926Z,9.50
2018-02-05T00:26:33.458Z,9.80
2018-02-05T00:27:38.981Z,8.40
2018-02-05T00:28:44.516Z,10.90
2018-02-05T00:29:50.039Z,7.10
2018-02-05T00:30:55.569Z,7.90
2018-02-05T00:32:01.088Z,9.50
2018-02-05T00:33:06.620Z,14.50
2018-02-05T00:34:12.156Z,8.90
2018-02-05T00:35:17.673Z,9.90
2018-02-05T00:36:23.205Z,9.40
2018-02-05T00:37:28.730Z,11.20
2018-02-05T00:38:34.260Z,10.10
2018-02-05T00:39:39.790Z,11.20
2018-02-05T00:40:45.330Z,13.60
2018-02-05T00:41:50.842Z,9.60
2018-02-05T00:42:56.370Z,9.60
2018-02-05T00:44:01.896Z,10.90
2018-02-05T00:45:07.431Z,14.00
2018-02-05T00:46:12.958Z,10.10
2018-02-05T00:47:18.485Z,7.60
2018-02-05T00:48:24.007Z,10.10
2018-02-05T00:49:29.541Z,8.60
2018-02-05T00:50:35.072Z,11.70
2018-02-05T00:51:40.602Z,8.10
2018-02-05T00:52:46.131Z,7.70
2018-02-05T00:53:51.651Z,11.20
2018-02-05T00:54:57.188Z,12.00
2018-02-05T00:56:02.712Z,7.90
2018-02-05T00:57:08.238Z,9.80
2018-02-05T00:58:13.771Z,9.40
2018-02-05T00:59:19.290Z,11.90
2018-02-05T01:00:24.819Z,9.70
2018-02-05T01:01:30.354Z,9.90
2018-02-05T01:02:35.877Z,7.80
2018-02-05T01:03:41.401Z,10.70
2018-02-05T01:04:46.930Z,9.10
2018-02-05T01:05:52.464Z,7.60
2018-02-05T01:06:57.989Z,8.50
2018-02-05T01:08:03.515Z,12.30
2018-02-05T01:09:09.050Z,8.40
2018-02-05T01:10:14.575Z,13.60
2018-02-05T01:11:20.101Z,10.90
2018-02-05T01:12:25.628Z,9.10
2018-02-05T01:13:31.155Z,9.30
2018-02-05T01:14:36.687Z,9.10
2018-02-05T01:15:42.210Z,8.60
2018-02-05T01:16:47.743Z,9.60
2018-02-05T01:17:53.267Z,10.60
2018-02-05T01:18:58.796Z,11.70
2018-02-05T01:20:04.322Z,7.20
2018-02-05T01:21:09.850Z,10.60
2018-02-05T01:22:15.379Z,9.00
2018-02-05T01:23:20.910Z,8.90
2018-02-05T01:24:26.434Z,13.80
2018-02-05T01:25:31.970Z,11.40
2018-02-05T01:26:37.497Z,14.30
2018-02-05T01:27:43.022Z,12.20
2018-02-05T01:28:48.548Z,9.40
2018-02-05T01:29:54.083Z,11.50
2018-02-05T01:30:59.605Z,11.50
2018-02-05T01:32:05.137Z,13.30
2018-02-05T01:33:10.662Z,10.50
2018-02-05T01:34:16.187Z,10.20
2018-02-05T01:35:21.718Z,9.90
2018-02-05T01:36:27.249Z,12.10
2018-02-05T01:37:32.772Z,12.70
2018-02-05T01:38:38.368Z,8.10
2018-02-05T01:39:43.830Z,12.30
2018-02-05T01:40:49.356Z,6.20
2018-02-05T01:41:54.885Z,7.80
2018-02-05T01:43:00.414Z,12.80
2018-02-05T01:44:05.953Z,11.10
2018-02-05T01:45:11.471Z,12.70
2018-02-05T01:46:17.001Z,9.00
2018-02-05T01:47:22.530Z,8.40
2018-02-05T01:48:28.059Z,8.30
2018-02-05T01:49:33.588Z,13.80
2018-02-05T01:50:39.116Z,10.50
2018-02-05T01:51:44.644Z,8.00
2018-02-05T01:52:50.170Z,9.50
2018-02-05T01:53:55.699Z,12.50
2018-02-05T01:55:01.222Z,7.20
2018-02-05T01:56:06.756Z,7.20
2018-02-05T01:57:12.282Z,9.90
2018-02-05T01:58:17.809Z,9.70
2018-02-05T01:59:23.341Z,10.30
2018-02-05T02:00:28.868Z,11.70
2018-02-05T02:01:34.392Z,6.20
2018-02-05T02:02:39.927Z,9.20
2018-02-05T02:03:45.454Z,8.60
2018-02-05T02:04:50.983Z,7.50
2018-02-05T02:05:56.509Z,7.40
2018-02-05T02:07:02.032Z,9.30
2018-02-05T02:08:07.562Z,9.90
2018-02-05T02:09:13.094Z,9.30
2018-02-05T02:10:18.618Z,6.50
2018-02-05T02:11:24.150Z,11.90
2018-02-05T02:12:29.676Z,7.60
2018-02-05T02:13:35.205Z,8.90
2018-02-05T02:14:40.731Z,9.20
2018-02-05T02:15:46.262Z,7.70
2018-02-05T02:16:51.839Z,8.70
2018-02-05T02:17:57.316Z,7.90
2018-02-05T02:19:02.843Z,10.10
2018-02-05T02:20:08.375Z,8.70
2018-02-05T02:21:13.905Z,6.60
2018-02-05T02:22:19.428Z,8.20
2018-02-05T02:23:24.958Z,9.10
2018-02-05T02:24:30.499Z,8.30
2018-02-05T02:25:36.020Z,10.00
2018-02-05T02:26:41.544Z,8.90
2018-02-05T02:27:47.072Z,7.80
2018-02-05T02:28:52.597Z,9.40
2018-02-05T02:29:58.130Z,9.30
2018-02-05T02:31:03.668Z,7.50
2018-02-05T02:32:09.179Z,8.10
2018-02-05T02:33:14.710Z,15.70
2018-02-05T02:34:20.238Z,12.70
2018-02-05T02:35:25.772Z,7.00
2018-02-05T02:36:31.301Z,8.50
2018-02-05T02:37:36.824Z,5.90
2018-02-05T02:38:42.354Z,6.50
2018-02-05T02:39:47.883Z,8.60
2018-02-05T02:40:53.416Z,7.00
2018-02-05T02:41:58.942Z,6.80
2018-02-05T02:43:04.467Z,9.60
2018-02-05T02:44:09.993Z,5.90
2018-02-05T02:45:15.526Z,6.30
2018-02-05T02:46:21.050Z,8.10
2018-02-05T02:47:26.582Z,9.50
2018-02-05T02:48:32.110Z,8.00
2018-02-05T02:49:37.637Z,7.90
2018-02-05T02:50:43.167Z,5.10
2018-02-05T02:51:48.693Z,6.90
2018-02-05T02:52:54.219Z,6.40
2018-02-05T02:53:59.754Z,5.70
2018-02-05T02:55:05.276Z,8.20
2018-02-05T02:56:10.803Z,8.20
2018-02-05T02:57:16.333Z,7.10
2018-02-05T02:58:21.860Z,8.80
2018-02-05T02:59:27.390Z,6.90
2018-02-05T03:00:32.919Z,9.60
2018-02-05T03:01:38.447Z,6.10
2018-02-05T03:02:43.975Z,7.20
2018-02-05T03:03:49.501Z,9.30
2018-02-05T03:04:55.032Z,5.60
2018-02-05T03:06:00.559Z,6.70
2018-02-05T03:07:06.085Z,6.60
2018-02-05T03:08:11.611Z,9.20
2018-02-05T03:09:17.142Z,9.20
2018-02-05T03:10:22.666Z,6.70
2018-02-05T03:11:28.201Z,7.50
2018-02-05T03:12:33.723Z,8.10
2018-02-05T03:13:39.253Z,9.20
2018-02-05T03:14:44.796Z,6.80
2018-02-05T03:15:50.316Z,5.80
2018-02-05T03:16:55.836Z,7.30
2018-02-05T03:18:01.364Z,9.00
2018-02-05T03:19:06.891Z,6.70
2018-02-05T03:20:12.422Z,5.80
2018-02-05T03:21:17.952Z,9.70
2018-02-05T03:22:23.473Z,6.90
2018-02-05T03:23:29.002Z,5.00
2018-02-05T03:24:34.531Z,4.90
2018-02-05T03:25:40.062Z,8.30
2018-02-05T03:26:45.590Z,4.90
2018-02-05T03:27:51.118Z,5.70
2018-02-05T03:28:56.641Z,7.60
2018-02-05T03:30:02.174Z,5.80
2018-02-05T03:31:07.699Z,7.00
2018-02-05T03:32:13.236Z,7.40
2018-02-05T03:33:18.753Z,6.60
2018-02-05T03:34:24.281Z,6.90
2018-02-05T03:35:29.817Z,6.60
2018-02-05T03:36:35.340Z,8.30
2018-02-05T03:37:40.863Z,5.50
2018-02-05T03:38:46.394Z,5.20
2018-02-05T03:39:51.922Z,9.00
2018-02-05T03:40:57.469Z,5.80
2018-02-05T03:42:02.979Z,6.10
2018-02-05T03:43:08.510Z,5.90
2018-02-05T03:44:14.038Z,8.50
2018-02-05T03:45:19.566Z,7.20
2018-02-05T03:46:25.092Z,5.60
2018-02-05T03:47:30.613Z,7.00
2018-02-05T03:48:36.141Z,6.70
2018-02-05T03:49:41.673Z,5.00
2018-02-05T03:50:47.208Z,9.80
2018-02-05T03:51:52.726Z,6.60
2018-02-05T03:52:58.303Z,6.80
2018-02-05T03:54:03.779Z,5.30
2018-02-05T03:55:09.308Z,5.40
2018-02-05T03:56:14.843Z,9.20
2018-02-05T03:57:20.363Z,7.80
2018-02-05T03:58:25.889Z,7.40
2018-02-05T03:59:31.418Z,7.40
2018-02-05T04:00:36.942Z,6.70
2018-02-05T04:01:42.474Z,6.90
2018-02-05T04:02:48.005Z,8.60
2018-02-05T04:03:53.532Z,10.30
2018-02-05T04:04:59.065Z,8.20
2018-02-05T04:06:04.584Z,7.90
2018-02-05T04:07:10.112Z,7.50
2018-02-05T04:08:15.637Z,7.10
2018-02-05T04:09:21.173Z,8.60
2018-02-05T04:10:26.700Z,10.10
2018-02-05T04:11:32.223Z,8.70
2018-02-05T04:12:37.748Z,7.40
2018-02-05T04:13:43.284Z,13.10
2018-02-05T04:14:48.804Z,12.60
2018-02-05T04:15:54.331Z,8.60
2018-02-05T04:16:59.860Z,9.30
2018-02-05T04:18:05.390Z,7.60
2018-02-05T04:19:10.915Z,9.60
2018-02-05T04:20:16.442Z,6.90
2018-02-05T04:21:21.983Z,10.30
2018-02-05T04:22:27.500Z,10.00
2018-02-05T04:23:33.029Z,13.70
2018-02-05T04:24:38.551Z,9.70
2018-02-05T04:25:44.086Z,9.80
2018-02-05T04:26:49.612Z,9.70
2018-02-05T04:27:55.137Z,10.80
2018-02-05T04:29:00.662Z,11.10
2018-02-05T04:30:06.192Z,8.60
2018-02-05T04:31:11.728Z,7.50
2018-02-05T04:32:17.246Z,9.20
2018-02-05T04:33:22.774Z,7.50
2018-02-05T04:34:28.309Z,9.90
2018-02-05T04:35:33.830Z,8.70
2018-02-05T04:36:39.368Z,7.50
2018-02-05T04:37:44.883Z,9.50
2018-02-05T04:38:50.414Z,6.10
2018-02-05T04:39:55.946Z,7.60
2018-02-05T04:41:01.473Z,6.10
2018-02-05T04:42:07.002Z,6.10
2018-02-05T04:43:12.523Z,8.10
2018-02-05T04:44:18.053Z,12.90
2018-02-05T04:45:23.581Z,6.00
2018-02-05T04:46:29.105Z,8.30
2018-02-05T04:47:34.638Z,8.40
2018-02-05T04:48:40.169Z,6.10
2018-02-05T04:49:45.701Z,7.40
2018-02-05T04:50:51.222Z,9.10
2018-02-05T04:51:56.749Z,8.00
2018-02-05T04:53:02.280Z,6.60
2018-02-05T04:54:07.805Z,8.90
2018-02-05T04:55:13.329Z,15.40
2018-02-05T04:56:18.859Z,12.40
2018-02-05T04:57:24.384Z,12.00
2018-02-05T04:58:29.913Z,14.00
2018-02-05T04:59:35.440Z,9.80
2018-02-05T05:00:40.967Z,11.90
2018-02-05T05:01:46.493Z,8.30
2018-02-05T05:02:52.033Z,7.20
2018-02-05T05:03:57.552Z,7.40
2018-02-05T05:05:03.089Z,10.20
2018-02-05T05:06:08.610Z,13.00
2018-02-05T05:07:14.139Z,11.30
2018-02-05T05:08:19.669Z,6.80
2018-02-05T05:09:25.191Z,10.40
2018-02-05T05:10:30.712Z,12.90
2018-02-05T05:11:36.245Z,7.90
2018-02-05T05:12:41.771Z,8.30
2018-02-05T05:13:47.296Z,10.40
2018-02-05T05:14:52.824Z,5.10
2018-02-05T05:15:58.355Z,9.60
2018-02-05T05:17:03.882Z,6.20
2018-02-05T05:18:09.409Z,5.60
2018-02-05T05:19:14.948Z,8.80
2018-02-05T05:20:20.465Z,9.60
2018-02-05T05:21:25.996Z,7.10
2018-02-05T05:22:31.525Z,7.30
2018-02-05T05:23:37.052Z,8.80
2018-02-05T05:24:42.575Z,10.50
2018-02-05T05:25:48.105Z,6.20
2018-02-05T05:26:53.628Z,10.50
2018-02-05T05:27:59.169Z,8.40
2018-02-05T05:29:04.686Z,10.30
2018-02-05T05:30:10.218Z,12.00
2018-02-05T05:31:15.744Z,11.10
2018-02-05T05:32:21.272Z,10.30
2018-02-05T05:33:26.804Z,9.50
2018-02-05T05:34:32.327Z,7.90
2018-02-05T05:35:37.857Z,10.80
2018-02-05T05:36:43.387Z,8.50
2018-02-05T05:37:48.909Z,8.40
2018-02-05T05:38:54.437Z,9.20
2018-02-05T05:39:59.966Z,11.30
2018-02-05T05:41:05.683Z,7.80
2018-02-05T05:42:11.018Z,7.00
2018-02-05T05:43:16.543Z,8.10
2018-02-05T05:44:22.109Z,8.50
2018-02-05T05:45:27.605Z,8.50
2018-02-05T05:46:33.134Z,8.10
2018-02-05T05:47:38.659Z,8.20
2018-02-05T05:48:44.188Z,9.80
2018-02-05T05:49:49.715Z,10.00
2018-02-05T05:50:55.243Z,13.30
2018-02-05T05:52:00.770Z,10.90
2018-02-05T05:53:06.299Z,7.40
2018-02-05T05:54:11.826Z,9.10
2018-02-05T05:55:17.354Z,10.10
2018-02-05T05:56:22.883Z,7.60
2018-02-05T05:57:28.409Z,7.20
2018-02-05T05:58:33.932Z,7.40
2018-02-05T05:59:39.457Z,6.60
2018-02-05T06:00:44.992Z,7.50
2018-02-05T06:01:50.553Z,10.10
2018-02-05T06:02:56.047Z,8.00
2018-02-05T06:04:01.572Z,6.40
2018-02-05T06:05:07.101Z,7.40
2018-02-05T06:06:12.626Z,9.80
2018-02-05T06:07:18.154Z,9.40
2018-02-05T06:08:23.677Z,11.90
2018-02-05T06:09:29.207Z,8.70
2018-02-05T06:10:34.737Z,8.70
2018-02-05T06:11:40.264Z,11.00
2018-02-05T06:12:45.792Z,6.80
2018-02-05T06:13:51.317Z,10.60
2018-02-05T06:14:56.845Z,8.10
2018-02-05T06:16:02.377Z,5.70
2018-02-05T06:17:07.914Z,9.60
2018-02-05T06:18:13.435Z,9.50
2018-02-05T06:19:18.955Z,15.70
2018-02-05T06:20:24.479Z,12.40
2018-02-05T06:21:30.009Z,9.20
2018-02-05T06:22:35.536Z,9.20
2018-02-05T06:23:41.062Z,9.20
2018-02-05T06:24:46.590Z,7.60
2018-02-05T06:25:52.123Z,6.80
2018-02-05T06:26:57.651Z,11.20
2018-02-05T06:28:03.174Z,9.90
2018-02-05T06:29:08.698Z,14.20
2018-02-05T06:30:14.231Z,10.80
2018-02-05T06:31:19.753Z,9.20
2018-02-05T06:32:25.327Z,7.50
2018-02-05T06:33:30.810Z,9.40
2018-02-05T06:34:36.341Z,6.30
2018-02-05T06:35:41.864Z,10.60
2018-02-05T06:36:47.393Z,6.00
2018-02-05T06:37:52.926Z,10.40
2018-02-05T06:38:58.443Z,8.60
2018-02-05T06:40:03.980Z,17.90
2018-02-05T06:41:09.501Z,12.20
2018-02-05T06:42:15.029Z,7.00
2018-02-05T06:43:20.566Z,8.80
2018-02-05T06:44:26.083Z,8.40
2018-02-05T06:45:31.613Z,8.90
2018-02-05T06:46:37.135Z,9.60
2018-02-05T06:47:42.663Z,8.50
2018-02-05T06:48:48.200Z,10.00
2018-02-05T06:49:53.724Z,8.60
2018-02-05T06:50:59.249Z,6.50
2018-02-05T06:52:04.777Z,14.50
2018-02-05T06:53:10.303Z,7.50
2018-02-05T06:54:15.831Z,7.40
2018-02-05T06:55:21.354Z,6.10
2018-02-05T06:56:26.887Z,7.90
2018-02-05T06:57:32.409Z,8.70
2018-02-05T06:58:37.934Z,7.30
2018-02-05T06:59:43.463Z,10.60
2018-02-05T07:00:48.993Z,7.20
2018-02-05T07:01:54.517Z,10.90
2018-02-05T07:03:00.047Z,9.80
2018-02-05T07:04:05.576Z,8.80
2018-02-05T07:05:11.100Z,7.40
2018-02-05T07:06:16.627Z,7.10
2018-02-05T07:07:22.154Z,8.00
2018-02-05T07:08:27.684Z,10.40
2018-02-05T07:09:33.212Z,9.60
2018-02-05T07:10:38.741Z,6.00
2018-02-05T07:11:44.263Z,7.40
2018-02-05T07:12:49.793Z,6.80
2018-02-05T07:13:55.316Z,7.50
2018-02-05T07:15:00.853Z,10.70
2018-02-05T07:16:06.375Z,9.30
2018-02-05T07:17:11.904Z,6.20
2018-02-05T07:18:17.429Z,8.20
2018-02-05T07:19:22.952Z,6.40
2018-02-05T07:20:28.484Z,8.00
2018-02-05T07:21:34.012Z,6.40
2018-02-05T07:22:39.546Z,8.10
2018-02-05T07:23:45.063Z,7.80
2018-02-05T07:24:50.600Z,6.70
2018-02-05T07:25:56.122Z,8.40
2018-02-05T07:27:01.653Z,5.60
2018-02-05T07:28:07.172Z,7.90
2018-02-05T07:29:12.705Z,9.10
2018-02-05T07:30:18.237Z,8.10
2018-02-05T07:31:23.760Z,8.40
2018-02-05T07:32:29.285Z,7.20
2018-02-05T07:33:34.813Z,9.30
2018-02-05T07:34:40.336Z,7.60
2018-02-05T07:35:45.943Z,9.90
2018-02-05T07:36:51.391Z,7.50
2018-02-05T07:37:56.917Z,9.90
2018-02-05T07:39:02.508Z,8.00
2018-02-05T07:40:07.974Z,8.50
2018-02-05T07:41:13.498Z,6.80
2018-02-05T07:42:19.027Z,8.90
2018-02-05T07:43:24.558Z,10.30
2018-02-05T07:44:30.081Z,7.50
2018-02-05T07:45:35.607Z,8.80
2018-02-05T07:46:41.140Z,10.10
2018-02-05T07:47:46.674Z,9.50
2018-02-05T07:48:52.189Z,9.30
2018-02-05T07:49:57.726Z,8.20
2018-02-05T07:51:03.245Z,9.60
2018-02-05T07:52:08.772Z,7.80
2018-02-05T07:53:14.396Z,10.40
2018-02-05T07:54:19.829Z,4.80
2018-02-05T07:55:25.357Z,10.00
2018-02-05T07:56:30.888Z,8.30
2018-02-05T07:57:36.425Z,6.80
2018-02-05T07:58:41.941Z,6.70
2018-02-05T07:59:47.468Z,8.20
2018-02-05T08:00:52.994Z,5.20
2018-02-05T08:01:58.532Z,6.40
2018-02-05T08:03:04.047Z,7.60
2018-02-05T08:04:09.575Z,6.60
2018-02-05T08:05:15.103Z,8.10
2018-02-05T08:06:20.632Z,5.10
2018-02-05T08:07:26.160Z,8.20
2018-02-05T08:08:31.697Z,5.70
2018-02-05T08:09:37.218Z,4.20
2018-02-05T08:10:42.743Z,6.20
2018-02-05T08:11:48.272Z,5.70
2018-02-05T08:12:53.803Z,6.90
2018-02-05T08:13:59.324Z,10.00
2018-02-05T08:15:04.853Z,6.60
2018-02-05T08:16:10.381Z,8.60
2018-02-05T08:17:15.915Z,9.10
2018-02-05T08:18:21.440Z,6.00
2018-02-05T08:19:26.967Z,10.50
2018-02-05T08:20:32.492Z,8.50
2018-02-05T08:21:38.019Z,8.10
2018-02-05T08:22:43.549Z,8.80
2018-02-05T08:23:49.077Z,6.20
2018-02-05T08:24:54.607Z,6.70
2018-02-05T08:26:00.173Z,5.00
2018-02-05T08:27:05.662Z,5.60
2018-02-05T08:28:11.193Z,8.40
2018-02-05T08:29:16.719Z,7.50
2018-02-05T08:30:22.250Z,9.60
2018-02-05T08:31:27.781Z,7.70
2018-02-05T08:32:33.302Z,8.50
2018-02-05T08:33:38.831Z,6.90
2018-02-05T08:34:44.368Z,6.40
2018-02-05T08:35:49.885Z,9.10
2018-02-05T08:36:55.418Z,7.70
2018-02-05T08:38:00.942Z,6.70
2018-02-05T08:39:06.471Z,6.30
2018-02-05T08:40:12.081Z,7.30
2018-02-05T08:41:17.523Z,5.50
2018-02-05T08:42:23.056Z,9.50
2018-02-05T08:43:28.585Z,6.70
2018-02-05T08:44:34.112Z,7.50
2018-02-05T08:45:39.640Z,4.30
2018-02-05T08:46:45.170Z,7.90
2018-02-05T08:47:50.693Z,5.90
2018-02-05T08:48:56.225Z,8.40
2018-02-05T08:50:01.755Z,8.40
2018-02-05T08:51:07.278Z,7.40
2018-02-05T08:52:12.817Z,5.60
2018-02-05T08:53:18.339Z,6.10
2018-02-05T08:54:23.873Z,5.40
2018-02-05T08:55:29.397Z,8.60
2018-02-05T08:56:34.926Z,11.10
2018-02-05T08:57:40.451Z,12.80
2018-02-05T08:58:45.983Z,6.80
2018-02-05T08:59:51.507Z,10.90
2018-02-05T09:00:57.037Z,10.20
2018-02-05T09:02:02.568Z,5.60
2018-02-05T09:03:08.094Z,6.80
2018-02-05T09:04:13.628Z,9.20
2018-02-05T09:05:19.152Z,7.00
2018-02-05T09:06:24.677Z,8.10
2018-02-05T09:07:30.210Z,7.20
2018-02-05T09:08:35.743Z,5.30
2018-02-05T09:09:41.268Z,5.00
2018-02-05T09:10:46.798Z,5.00
2018-02-05T09:11:52.328Z,6.30
2018-02-05T09:12:57.854Z,5.60
2018-02-05T09:14:03.380Z,6.60
2018-02-05T09:15:08.910Z,6.60
2018-02-05T09:16:14.441Z,7.60
2018-02-05T09:17:19.966Z,4.90
2018-02-05T09:18:25.496Z,8.30
2018-02-05T09:19:31.029Z,5.40
2018-02-05T09:20:36.556Z,6.10
2018-02-05T09:21:42.094Z,5.80
2018-02-05T09:22:47.620Z,4.80
2018-02-05T09:23:53.145Z,6.20
2018-02-05T09:24:58.671Z,7.00
2018-02-05T09:26:04.203Z,5.80
2018-02-05T09:27:09.729Z,6.90
2018-02-05T09:29:47.349Z,8.80
2018-02-05T09:30:52.852Z,7.10
2018-02-05T09:31:58.385Z,6.40
2018-02-05T09:33:03.908Z,6.80
2018-02-05T09:34:09.436Z,6.40
2018-02-05T09:35:14.964Z,3.40
2018-02-05T09:36:20.497Z,7.40
2018-02-05T09:37:26.022Z,6.80
2018-02-05T09:38:31.549Z,4.80
2018-02-05T09:39:37.077Z,5.30
2018-02-05T09:40:42.605Z,4.40
2018-02-05T09:41:48.134Z,4.90
2018-02-05T09:42:53.660Z,7.10
2018-02-05T09:43:59.191Z,8.60
2018-02-05T09:45:04.723Z,5.10
2018-02-05T09:46:10.248Z,7.80
2018-02-05T09:47:15.778Z,2.70
2018-02-05T09:48:21.302Z,5.40
2018-02-05T09:49:26.831Z,6.30
2018-02-05T09:50:32.367Z,8.50
2018-02-05T09:51:37.885Z,8.10
2018-02-05T09:52:43.417Z,9.20
2018-02-05T09:53:48.950Z,7.20
2018-02-05T09:54:54.477Z,6.40
2018-02-05T09:56:00.011Z,3.80
2018-02-05T09:57:05.530Z,4.80
2018-02-05T09:58:11.058Z,5.80
2018-02-05T09:59:16.586Z,7.50
2018-02-05T10:00:22.114Z,6.40
2018-02-05T10:01:27.640Z,6.60
2018-02-05T10:02:33.178Z,3.30
2018-02-05T10:03:38.705Z,4.50
2018-02-05T10:04:44.226Z,6.30
2018-02-05T10:05:49.754Z,8.20
2018-02-05T10:06:55.292Z,7.00
2018-02-05T10:08:00.811Z,4.90
2018-02-05T10:09:06.342Z,9.80
2018-02-05T10:10:11.871Z,3.20
2018-02-05T10:11:17.397Z,5.60
2018-02-05T10:12:22.932Z,3.80
2018-02-05T10:13:28.466Z,6.30
2018-02-05T10:14:33.989Z,4.90
2018-02-05T10:15:39.541Z,4.50
2018-02-05T10:16:45.046Z,3.70
2018-02-05T10:17:50.581Z,4.10
2018-02-05T10:18:56.112Z,5.20
2018-02-05T10:20:01.638Z,7.20
2018-02-05T10:21:07.168Z,4.40
2018-02-05T10:22:12.694Z,4.30
2018-02-05T10:23:18.228Z,6.50
2018-02-05T10:24:23.760Z,6.00
2018-02-05T10:25:29.285Z,4.90
2018-02-05T10:26:34.824Z,5.10
2018-02-05T10:27:40.352Z,5.40
2018-02-05T10:28:45.876Z,4.20
2018-02-05T10:29:51.411Z,5.90
2018-02-05T10:30:56.933Z,4.50
2018-02-05T10:32:02.466Z,5.40
2018-02-05T10:33:07.993Z,6.60
2018-02-05T10:34:13.528Z,5.00
2018-02-05T10:35:19.061Z,5.10
2018-02-05T10:36:24.591Z,3.60
2018-02-05T10:37:30.116Z,5.40
2018-02-05T10:38:35.646Z,7.60
2018-02-05T10:39:41.180Z,6.80
2018-02-05T10:40:46.713Z,5.00
2018-02-05T10:41:52.237Z,6.00
2018-02-05T10:42:57.806Z,7.00
2018-02-05T10:44:03.299Z,4.80
2018-02-05T10:45:08.827Z,6.00
2018-02-05T10:46:14.359Z,6.70
2018-02-05T10:47:19.892Z,5.00
2018-02-05T10:48:25.421Z,6.70
2018-02-05T10:49:30.950Z,7.50
2018-02-05T10:50:36.476Z,4.20
2018-02-05T10:51:42.008Z,5.20
2018-02-05T10:52:47.535Z,9.10
2018-02-05T10:53:53.071Z,8.10
2018-02-05T10:54:58.600Z,4.70
2018-02-05T10:56:04.127Z,6.80
2018-02-05T10:57:09.658Z,7.10
2018-02-05T10:58:15.191Z,9.00
2018-02-05T10:59:20.719Z,4.70
2018-02-05T11:00:26.250Z,5.60
2018-02-05T11:01:31.775Z,5.30
2018-02-05T11:02:37.312Z,2.90
2018-02-05T11:03:42.847Z,5.40
2018-02-05T11:04:48.376Z,8.10
2018-02-05T11:05:53.897Z,5.40
2018-02-05T11:06:59.432Z,4.90
2018-02-05T11:08:04.958Z,2.80
2018-02-05T11:09:10.491Z,3.00
2018-02-05T11:10:16.026Z,8.70
2018-02-05T11:11:21.558Z,7.50
2018-02-05T11:12:27.081Z,4.00
2018-02-05T11:13:32.610Z,6.60
2018-02-05T11:14:38.147Z,7.00
2018-02-05T11:15:43.681Z,8.10
2018-02-05T11:16:49.203Z,3.50
2018-02-05T11:17:54.740Z,6.60
2018-02-05T11:19:00.274Z,5.00
2018-02-05T11:20:05.796Z,5.60
2018-02-05T11:21:11.327Z,5.70
2018-02-05T11:22:16.858Z,4.40
2018-02-05T11:23:22.392Z,4.00
2018-02-05T11:24:27.920Z,6.30
2018-02-05T11:25:33.456Z,3.50
2018-02-05T11:26:38.979Z,5.60
2018-02-05T11:27:44.512Z,4.30
2018-02-05T11:28:50.044Z,3.50
2018-02-05T11:29:55.578Z,3.90
2018-02-05T11:31:01.101Z,3.30
2018-02-05T11:32:06.631Z,5.90
2018-02-05T11:33:12.163Z,4.70
2018-02-05T11:34:17.704Z,8.10
2018-02-05T11:35:23.226Z,5.90
2018-02-05T11:36:28.762Z,8.30
2018-02-05T11:37:34.291Z,10.40
2018-02-05T11:38:39.817Z,4.40
2018-02-05T11:39:45.353Z,4.10
2018-02-05T11:40:50.876Z,4.70
2018-02-05T11:41:56.410Z,8.30
2018-02-05T11:43:01.939Z,4.50
2018-02-05T11:44:07.474Z,8.60
2018-02-05T11:46:44.597Z,7.90
2018-02-05T11:47:50.122Z,5.50
2018-02-05T11:48:55.654Z,4.20
2018-02-05T11:50:01.161Z,5.50
2018-02-05T11:51:06.691Z,4.00
2018-02-05T11:52:12.222Z,3.20
2018-02-05T11:53:17.754Z,5.20
2018-02-05T11:54:23.278Z,5.20
2018-02-05T11:55:28.811Z,4.10
2018-02-05T11:56:34.341Z,5.30
2018-02-05T11:57:39.869Z,2.50
2018-02-05T11:58:45.402Z,3.90
2018-02-05T11:59:50.933Z,4.90
2018-02-05T12:00:56.463Z,4.40
2018-02-05T12:02:01.991Z,4.90
2018-02-05T12:03:07.520Z,6.10
2018-02-05T12:04:13.061Z,4.40
2018-02-05T12:05:18.590Z,5.30
2018-02-05T12:06:24.112Z,4.10
2018-02-05T12:07:29.640Z,3.20
2018-02-05T12:08:35.173Z,4.40
2018-02-05T12:09:40.703Z,3.90
2018-02-05T12:10:46.237Z,3.00
2018-02-05T12:11:51.763Z,4.60
2018-02-05T12:12:57.291Z,4.40
2018-02-05T12:14:02.820Z,2.10
2018-02-05T12:15:08.368Z,3.20
2018-02-05T12:16:13.882Z,3.90
2018-02-05T12:17:19.412Z,4.30
2018-02-05T12:18:24.942Z,5.10
2018-02-05T12:19:30.475Z,3.80
2018-02-05T12:20:36.004Z,5.60
2018-02-05T12:21:41.534Z,4.10
2018-02-05T12:22:47.103Z,3.20
2018-02-05T12:23:52.599Z,4.50
2018-02-05T12:24:58.126Z,7.20
2018-02-05T12:26:03.653Z,5.70
2018-02-05T12:27:09.189Z,4.60
2018-02-05T12:28:14.720Z,3.80
2018-02-05T12:29:20.248Z,5.20
2018-02-05T12:30:25.780Z,4.20
2018-02-05T12:31:31.317Z,6.40
2018-02-05T12:32:36.840Z,5.50
2018-02-05T12:33:42.372Z,3.70
2018-02-05T12:34:47.894Z,4.40
2018-02-05T12:35:53.430Z,4.30
2018-02-05T12:36:58.960Z,4.30
2018-02-05T12:38:04.489Z,3.50
2018-02-05T12:39:10.016Z,3.60
2018-02-05T12:40:15.553Z,4.50
2018-02-05T12:41:21.084Z,4.50
2018-02-05T12:42:26.616Z,4.50
2018-02-05T12:43:32.139Z,4.70
2018-02-05T12:44:37.674Z,4.50
2018-02-05T12:45:43.201Z,2.60
2018-02-05T12:46:48.730Z,2.80
2018-02-05T12:47:54.262Z,4.40
2018-02-05T12:48:59.798Z,5.30
2018-02-05T12:50:05.344Z,3.70
2018-02-05T12:51:10.851Z,6.30
2018-02-05T12:52:16.376Z,4.70
2018-02-05T12:53:21.908Z,7.10
2018-02-05T12:54:27.443Z,4.90
2018-02-05T12:55:32.982Z,4.90
2018-02-05T12:56:38.501Z,4.50
2018-02-05T12:57:44.030Z,3.90
2018-02-05T12:58:49.558Z,5.60
2018-02-05T12:59:55.095Z,6.60
2018-02-05T13:01:00.618Z,3.90
2018-02-05T13:02:06.151Z,4.50
2018-02-05T13:03:11.675Z,5.90
2018-02-05T13:04:17.209Z,6.10
2018-02-05T13:05:22.742Z,3.20
2018-02-05T13:06:28.268Z,3.40
2018-02-05T13:07:33.799Z,4.00
2018-02-05T13:08:39.329Z,1.80
2018-02-05T13:09:44.861Z,4.00
2018-02-05T13:10:50.391Z,5.80
2018-02-05T13:11:55.926Z,5.00
2018-02-05T13:13:01.450Z,6.90
2018-02-05T13:14:06.976Z,3.40
2018-02-05T13:15:12.515Z,3.20
2018-02-05T13:16:18.039Z,2.70
2018-02-05T13:17:23.571Z,4.30
2018-02-05T13:18:29.097Z,4.20
2018-02-05T13:19:34.626Z,2.80
2018-02-05T13:20:40.161Z,3.70
2018-02-05T13:21:45.689Z,3.30
2018-02-05T13:22:51.221Z,2.90
2018-02-05T13:23:56.746Z,5.10
2018-02-05T13:25:02.278Z,3.00
2018-02-05T13:26:07.805Z,4.00
2018-02-05T13:27:13.343Z,2.60
2018-02-05T13:28:18.865Z,2.30
2018-02-05T13:29:24.397Z,3.10
2018-02-05T13:30:29.940Z,3.60
2018-02-05T13:31:35.450Z,3.80
2018-02-05T13:32:40.983Z,5.60
2018-02-05T13:33:46.514Z,4.20
2018-02-05T13:34:52.051Z,2.70
2018-02-05T13:35:57.572Z,3.30
2018-02-05T13:37:03.107Z,3.00
2018-02-05T13:38:08.630Z,2.60
2018-02-05T13:39:14.170Z,3.50
2018-02-05T13:40:19.693Z,3.30
2018-02-05T13:41:25.224Z,3.60
2018-02-05T13:42:30.752Z,2.90
2018-02-05T13:43:36.279Z,5.10
2018-02-05T13:44:41.807Z,3.00
2018-02-05T13:45:47.346Z,2.40
2018-02-05T13:46:52.968Z,2.20
2018-02-05T13:47:58.396Z,3.00
2018-02-05T13:49:03.928Z,6.60
2018-02-05T13:50:09.457Z,3.20
2018-02-05T13:51:14.983Z,3.50
2018-02-05T13:52:20.515Z,3.80
2018-02-05T13:53:26.060Z,4.10
2018-02-05T13:54:31.575Z,4.30
2018-02-05T13:55:37.103Z,3.30
2018-02-05T13:56:42.634Z,4.50
2018-02-05T13:57:48.164Z,3.60
2018-02-05T13:58:53.684Z,3.10
2018-02-05T13:59:59.223Z,2.90
2018-02-05T14:01:04.751Z,3.30
2018-02-05T14:02:10.275Z,3.40
2018-02-05T14:03:15.818Z,3.40
2018-02-05T14:04:21.345Z,2.80
2018-02-05T14:05:26.870Z,2.00
2018-02-05T14:06:32.397Z,1.70
2018-02-05T14:07:37.927Z,2.40
2018-02-05T14:08:43.450Z,4.00
2018-02-05T14:09:48.981Z,3.20
2018-02-05T14:10:54.510Z,2.80
2018-02-05T14:12:00.044Z,3.40
2018-02-05T14:13:05.576Z,3.00
2018-02-05T14:14:11.102Z,5.30
2018-02-05T14:15:16.630Z,5.90
2018-02-05T14:16:22.158Z,4.70
2018-02-05T14:17:27.688Z,6.20
2018-02-05T14:18:33.220Z,6.20
2018-02-05T14:19:38.757Z,5.10
2018-02-05T14:20:44.278Z,4.60
2018-02-05T14:21:49.810Z,4.00
2018-02-05T14:22:55.336Z,6.50
2018-02-05T14:24:00.871Z,4.00
2018-02-05T14:25:06.403Z,6.60
2018-02-05T14:26:11.928Z,3.00
2018-02-05T14:27:17.458Z,3.90
2018-02-05T14:28:23.000Z,3.10
2018-02-05T14:29:28.519Z,3.80
2018-02-05T14:30:34.051Z,5.20